sensor_id;sensor_type;location;lat;lon;timestamp;temperature;humidity
69359;HTU21D;56520;49.066;8.660;2022-07-22T00:01:09;18.46;77.56
69359;HTU21D;56520;49.066;8.660;2022-07-22T00:03:35;18.47;77.82
69359;HTU21D;56520;49.066;8.660;2022-07-22T00:06:00;18.47;77.76
69359;HTU21D;56520;49.066;8.660;2022-07-22T00:08:26;18.47;77.97
69359;HTU21D;56520;49.066;8.660;2022-07-22T00:10:51;18.44;78.08
69359;HTU21D;56520;49.066;8.660;2022-07-22T00:13:16;18.42;78.55
69359;HTU21D;56520;49.066;8.660;2022-07-22T00:15:42;18.38;78.79
69359;HTU21D;56520;49.066;8.660;2022-07-22T00:18:07;18.35;78.87
69359;HTU21D;56520;49.066;8.660;2022-07-22T00:20:33;18.32;78.99
69359;HTU21D;56520;49.066;8.660;2022-07-22T00:22:58;18.30;79.02
69359;HTU21D;56520;49.066;8.660;2022-07-22T00:25:24;18.30;78.94
69359;HTU21D;56520;49.066;8.660;2022-07-22T00:27:49;18.29;78.95
69359;HTU21D;56520;49.066;8.660;2022-07-22T00:30:15;18.28;79.08
69359;HTU21D;56520;49.066;8.660;2022-07-22T00:32:40;18.26;79.09
69359;HTU21D;56520;49.066;8.660;2022-07-22T00:35:06;18.25;79.21
69359;HTU21D;56520;49.066;8.660;2022-07-22T00:37:32;18.25;79.19
69359;HTU21D;56520;49.066;8.660;2022-07-22T00:39:57;18.24;79.21
69359;HTU21D;56520;49.066;8.660;2022-07-22T00:42:23;18.22;79.12
69359;HTU21D;56520;49.066;8.660;2022-07-22T00:44:48;18.21;79.29
69359;HTU21D;56520;49.066;8.660;2022-07-22T00:47:14;18.20;79.19
69359;HTU21D;56520;49.066;8.660;2022-07-22T00:49:39;18.20;79.18
69359;HTU21D;56520;49.066;8.660;2022-07-22T00:52:05;18.19;79.06
69359;HTU21D;56520;49.066;8.660;2022-07-22T00:54:31;18.15;79.34
69359;HTU21D;56520;49.066;8.660;2022-07-22T00:56:56;18.12;79.42
69359;HTU21D;56520;49.066;8.660;2022-07-22T00:59:22;18.11;79.29
69359;HTU21D;56520;49.066;8.660;2022-07-22T01:01:47;18.09;79.36
69359;HTU21D;56520;49.066;8.660;2022-07-22T01:04:13;18.06;79.36
69359;HTU21D;56520;49.066;8.660;2022-07-22T01:06:39;18.03;79.37
69359;HTU21D;56520;49.066;8.660;2022-07-22T01:09:10;18.02;79.66
69359;HTU21D;56520;49.066;8.660;2022-07-22T01:11:36;18.03;79.66
69359;HTU21D;56520;49.066;8.660;2022-07-22T01:14:01;18.02;79.64
69359;HTU21D;56520;49.066;8.660;2022-07-22T01:16:27;18.00;79.77
69359;HTU21D;56520;49.066;8.660;2022-07-22T01:18:53;17.98;79.88
69359;HTU21D;56520;49.066;8.660;2022-07-22T01:21:18;17.95;79.90
69359;HTU21D;56520;49.066;8.660;2022-07-22T01:23:44;17.93;79.96
69359;HTU21D;56520;49.066;8.660;2022-07-22T01:26:09;17.90;80.06
69359;HTU21D;56520;49.066;8.660;2022-07-22T01:28:35;17.88;80.23
69359;HTU21D;56520;49.066;8.660;2022-07-22T01:31:00;17.85;80.27
69359;HTU21D;56520;49.066;8.660;2022-07-22T01:33:26;17.83;80.46
69359;HTU21D;56520;49.066;8.660;2022-07-22T01:35:52;17.82;80.38
69359;HTU21D;56520;49.066;8.660;2022-07-22T01:38:18;17.80;80.35
69359;HTU21D;56520;49.066;8.660;2022-07-22T01:40:44;17.77;80.44
69359;HTU21D;56520;49.066;8.660;2022-07-22T01:43:10;17.73;80.52
69359;HTU21D;56520;49.066;8.660;2022-07-22T01:45:36;17.70;80.58
69359;HTU21D;56520;49.066;8.660;2022-07-22T01:48:02;17.65;80.69
69359;HTU21D;56520;49.066;8.660;2022-07-22T01:50:28;17.61;80.69
69359;HTU21D;56520;49.066;8.660;2022-07-22T01:52:54;17.58;80.75
69359;HTU21D;56520;49.066;8.660;2022-07-22T01:55:19;17.55;81.02
69359;HTU21D;56520;49.066;8.660;2022-07-22T01:57:45;17.54;81.05
69359;HTU21D;56520;49.066;8.660;2022-07-22T02:00:11;17.53;81.18
69359;HTU21D;56520;49.066;8.660;2022-07-22T02:02:37;17.52;81.49
69359;HTU21D;56520;49.066;8.660;2022-07-22T02:05:05;17.51;81.46
69359;HTU21D;56520;49.066;8.660;2022-07-22T02:07:36;17.49;81.70
69359;HTU21D;56520;49.066;8.660;2022-07-22T02:10:02;17.47;81.68
69359;HTU21D;56520;49.066;8.660;2022-07-22T02:12:28;17.45;81.85
69359;HTU21D;56520;49.066;8.660;2022-07-22T02:14:53;17.41;82.03
69359;HTU21D;56520;49.066;8.660;2022-07-22T02:17:18;17.41;82.16
69359;HTU21D;56520;49.066;8.660;2022-07-22T02:19:44;17.41;82.29
69359;HTU21D;56520;49.066;8.660;2022-07-22T02:22:09;17.38;82.42
69359;HTU21D;56520;49.066;8.660;2022-07-22T02:24:35;17.39;82.46
69359;HTU21D;56520;49.066;8.660;2022-07-22T02:27:01;17.37;82.46
69359;HTU21D;56520;49.066;8.660;2022-07-22T02:29:26;17.34;82.82
69359;HTU21D;56520;49.066;8.660;2022-07-22T02:31:52;17.30;83.30
69359;HTU21D;56520;49.066;8.660;2022-07-22T02:34:17;17.22;83.44
69359;HTU21D;56520;49.066;8.660;2022-07-22T02:36:43;17.19;83.42
69359;HTU21D;56520;49.066;8.660;2022-07-22T02:39:08;17.16;83.64
69359;HTU21D;56520;49.066;8.660;2022-07-22T02:41:34;17.16;83.75
69359;HTU21D;56520;49.066;8.660;2022-07-22T02:43:59;17.14;83.71
69359;HTU21D;56520;49.066;8.660;2022-07-22T02:46:25;17.11;83.73
69359;HTU21D;56520;49.066;8.660;2022-07-22T02:48:53;17.07;83.94
69359;HTU21D;56520;49.066;8.660;2022-07-22T02:51:19;16.98;83.91
69359;HTU21D;56520;49.066;8.660;2022-07-22T02:53:44;16.85;83.94
69359;HTU21D;56520;49.066;8.660;2022-07-22T02:56:09;16.74;84.12
69359;HTU21D;56520;49.066;8.660;2022-07-22T02:58:35;16.70;84.15
69359;HTU21D;56520;49.066;8.660;2022-07-22T03:01:00;16.70;84.19
69359;HTU21D;56520;49.066;8.660;2022-07-22T03:03:26;16.70;84.40
69359;HTU21D;56520;49.066;8.660;2022-07-22T03:05:51;16.70;84.23
69359;HTU21D;56520;49.066;8.660;2022-07-22T03:08:17;16.71;84.31
69359;HTU21D;56520;49.066;8.660;2022-07-22T03:10:43;16.72;84.32
69359;HTU21D;56520;49.066;8.660;2022-07-22T03:13:08;16.73;84.26
69359;HTU21D;56520;49.066;8.660;2022-07-22T03:15:33;16.71;84.32
69359;HTU21D;56520;49.066;8.660;2022-07-22T03:17:59;16.67;84.42
69359;HTU21D;56520;49.066;8.660;2022-07-22T03:20:24;16.69;84.51
69359;HTU21D;56520;49.066;8.660;2022-07-22T03:22:50;16.67;84.65
69359;HTU21D;56520;49.066;8.660;2022-07-22T03:25:15;16.67;84.89
69359;HTU21D;56520;49.066;8.660;2022-07-22T03:27:41;16.63;85.18
69359;HTU21D;56520;49.066;8.660;2022-07-22T03:30:06;16.58;85.39
69359;HTU21D;56520;49.066;8.660;2022-07-22T03:32:32;16.51;85.33
69359;HTU21D;56520;49.066;8.660;2022-07-22T03:34:57;16.47;85.43
69359;HTU21D;56520;49.066;8.660;2022-07-22T03:37:23;16.44;85.44
69359;HTU21D;56520;49.066;8.660;2022-07-22T03:39:48;16.42;85.67
69359;HTU21D;56520;49.066;8.660;2022-07-22T03:42:14;16.35;85.64
69359;HTU21D;56520;49.066;8.660;2022-07-22T03:44:39;16.29;85.76
69359;HTU21D;56520;49.066;8.660;2022-07-22T03:47:05;16.30;85.79
69359;HTU21D;56520;49.066;8.660;2022-07-22T03:49:31;16.30;85.85
69359;HTU21D;56520;49.066;8.660;2022-07-22T03:51:57;16.33;85.97
69359;HTU21D;56520;49.066;8.660;2022-07-22T03:54:22;16.36;85.93
69359;HTU21D;56520;49.066;8.660;2022-07-22T03:56:47;16.37;85.67
69359;HTU21D;56520;49.066;8.660;2022-07-22T03:59:13;16.37;85.61
69359;HTU21D;56520;49.066;8.660;2022-07-22T04:01:38;16.33;85.67
69359;HTU21D;56520;49.066;8.660;2022-07-22T04:04:04;16.31;85.84
69359;HTU21D;56520;49.066;8.660;2022-07-22T04:06:30;16.30;85.96
69359;HTU21D;56520;49.066;8.660;2022-07-22T04:08:55;16.28;86.04
69359;HTU21D;56520;49.066;8.660;2022-07-22T04:11:21;16.31;86.19
69359;HTU21D;56520;49.066;8.660;2022-07-22T04:13:46;16.33;86.16
69359;HTU21D;56520;49.066;8.660;2022-07-22T04:16:12;16.34;86.05
69359;HTU21D;56520;49.066;8.660;2022-07-22T04:18:37;16.33;85.93
69359;HTU21D;56520;49.066;8.660;2022-07-22T04:21:03;16.31;86.03
69359;HTU21D;56520;49.066;8.660;2022-07-22T04:23:28;16.32;86.10
69359;HTU21D;56520;49.066;8.660;2022-07-22T04:25:54;16.31;86.08
69359;HTU21D;56520;49.066;8.660;2022-07-22T04:28:19;16.32;86.06
69359;HTU21D;56520;49.066;8.660;2022-07-22T04:30:45;16.31;86.19
69359;HTU21D;56520;49.066;8.660;2022-07-22T04:33:10;16.31;86.29
69359;HTU21D;56520;49.066;8.660;2022-07-22T04:35:36;16.33;86.41
69359;HTU21D;56520;49.066;8.660;2022-07-22T04:38:01;16.35;86.38
69359;HTU21D;56520;49.066;8.660;2022-07-22T04:40:27;16.37;86.54
69359;HTU21D;56520;49.066;8.660;2022-07-22T04:42:52;16.42;86.47
69359;HTU21D;56520;49.066;8.660;2022-07-22T04:45:18;16.42;86.54
69359;HTU21D;56520;49.066;8.660;2022-07-22T04:47:43;16.45;86.54
69359;HTU21D;56520;49.066;8.660;2022-07-22T04:50:09;16.48;86.64
69359;HTU21D;56520;49.066;8.660;2022-07-22T04:52:34;16.51;86.71
69359;HTU21D;56520;49.066;8.660;2022-07-22T04:54:59;16.58;86.75
69359;HTU21D;56520;49.066;8.660;2022-07-22T04:57:26;16.63;86.80
69359;HTU21D;56520;49.066;8.660;2022-07-22T04:59:52;16.70;86.71
69359;HTU21D;56520;49.066;8.660;2022-07-22T05:02:17;16.74;86.67
69359;HTU21D;56520;49.066;8.660;2022-07-22T05:04:43;16.80;86.77
69359;HTU21D;56520;49.066;8.660;2022-07-22T05:07:08;16.86;86.67
69359;HTU21D;56520;49.066;8.660;2022-07-22T05:09:34;16.90;86.68
69359;HTU21D;56520;49.066;8.660;2022-07-22T05:11:59;16.92;86.62
69359;HTU21D;56520;49.066;8.660;2022-07-22T05:14:25;16.99;87.09
69359;HTU21D;56520;49.066;8.660;2022-07-22T05:16:50;17.00;87.06
69359;HTU21D;56520;49.066;8.660;2022-07-22T05:19:16;17.02;86.80
69359;HTU21D;56520;49.066;8.660;2022-07-22T05:21:41;17.04;86.60
69359;HTU21D;56520;49.066;8.660;2022-07-22T05:24:07;17.09;86.51
69359;HTU21D;56520;49.066;8.660;2022-07-22T05:26:32;17.14;86.47
69359;HTU21D;56520;49.066;8.660;2022-07-22T05:28:59;17.20;86.38
69359;HTU21D;56520;49.066;8.660;2022-07-22T05:31:24;17.26;86.21
69359;HTU21D;56520;49.066;8.660;2022-07-22T05:33:50;17.31;86.16
69359;HTU21D;56520;49.066;8.660;2022-07-22T05:36:17;17.35;86.10
69359;HTU21D;56520;49.066;8.660;2022-07-22T05:38:43;17.40;86.06
69359;HTU21D;56520;49.066;8.660;2022-07-22T05:41:08;17.46;86.03
69359;HTU21D;56520;49.066;8.660;2022-07-22T05:43:34;17.52;85.95
69359;HTU21D;56520;49.066;8.660;2022-07-22T05:45:59;17.62;85.96
69359;HTU21D;56520;49.066;8.660;2022-07-22T05:48:24;17.72;85.89
69359;HTU21D;56520;49.066;8.660;2022-07-22T05:50:50;17.80;85.75
69359;HTU21D;56520;49.066;8.660;2022-07-22T05:53:15;17.88;85.72
69359;HTU21D;56520;49.066;8.660;2022-07-22T05:55:41;17.98;85.58
69359;HTU21D;56520;49.066;8.660;2022-07-22T05:58:06;18.09;85.49
69359;HTU21D;56520;49.066;8.660;2022-07-22T06:00:32;18.20;85.33
69359;HTU21D;56520;49.066;8.660;2022-07-22T06:02:57;18.27;85.32
69359;HTU21D;56520;49.066;8.660;2022-07-22T06:05:23;18.34;85.29
69359;HTU21D;56520;49.066;8.660;2022-07-22T06:07:48;18.41;85.27
69359;HTU21D;56520;49.066;8.660;2022-07-22T06:10:14;18.47;85.26
69359;HTU21D;56520;49.066;8.660;2022-07-22T06:12:39;18.56;85.09
69359;HTU21D;56520;49.066;8.660;2022-07-22T06:15:05;18.66;84.90
69359;HTU21D;56520;49.066;8.660;2022-07-22T06:17:31;18.74;84.71
69359;HTU21D;56520;49.066;8.660;2022-07-22T06:19:57;18.81;84.46
69359;HTU21D;56520;49.066;8.660;2022-07-22T06:22:22;18.86;84.35
69359;HTU21D;56520;49.066;8.660;2022-07-22T06:24:48;18.92;84.19
69359;HTU21D;56520;49.066;8.660;2022-07-22T06:27:14;18.97;84.21
69359;HTU21D;56520;49.066;8.660;2022-07-22T06:29:39;19.07;84.09
69359;HTU21D;56520;49.066;8.660;2022-07-22T06:32:07;19.17;83.69
69359;HTU21D;56520;49.066;8.660;2022-07-22T06:34:33;19.31;82.14
69359;HTU21D;56520;49.066;8.660;2022-07-22T06:36:58;19.42;82.17
69359;HTU21D;56520;49.066;8.660;2022-07-22T06:39:24;19.50;81.65
69359;HTU21D;56520;49.066;8.660;2022-07-22T06:41:49;19.57;81.42
69359;HTU21D;56520;49.066;8.660;2022-07-22T06:44:14;19.69;80.95
69359;HTU21D;56520;49.066;8.660;2022-07-22T06:46:40;19.75;80.65
69359;HTU21D;56520;49.066;8.660;2022-07-22T06:49:05;19.84;79.59
69359;HTU21D;56520;49.066;8.660;2022-07-22T06:51:32;19.92;78.79
69359;HTU21D;56520;49.066;8.660;2022-07-22T06:53:57;20.00;78.69
69359;HTU21D;56520;49.066;8.660;2022-07-22T06:56:22;20.07;78.30
69359;HTU21D;56520;49.066;8.660;2022-07-22T06:58:48;20.14;77.11
69359;HTU21D;56520;49.066;8.660;2022-07-22T07:01:13;20.22;76.90
69359;HTU21D;56520;49.066;8.660;2022-07-22T07:03:39;20.30;76.93
69359;HTU21D;56520;49.066;8.660;2022-07-22T07:06:07;20.39;76.79
69359;HTU21D;56520;49.066;8.660;2022-07-22T07:08:33;20.45;76.38
69359;HTU21D;56520;49.066;8.660;2022-07-22T07:10:59;20.54;75.24
69359;HTU21D;56520;49.066;8.660;2022-07-22T07:13:24;20.62;75.20
69359;HTU21D;56520;49.066;8.660;2022-07-22T07:15:50;20.70;74.55
69359;HTU21D;56520;49.066;8.660;2022-07-22T07:18:15;20.72;74.58
69359;HTU21D;56520;49.066;8.660;2022-07-22T07:20:40;20.76;75.00
69359;HTU21D;56520;49.066;8.660;2022-07-22T07:23:06;20.86;74.35
69359;HTU21D;56520;49.066;8.660;2022-07-22T07:25:32;20.94;73.61
69359;HTU21D;56520;49.066;8.660;2022-07-22T07:27:57;20.99;73.48
69359;HTU21D;56520;49.066;8.660;2022-07-22T07:30:23;21.06;73.94
69359;HTU21D;56520;49.066;8.660;2022-07-22T07:32:48;21.15;73.99
69359;HTU21D;56520;49.066;8.660;2022-07-22T07:35:14;21.23;73.94
69359;HTU21D;56520;49.066;8.660;2022-07-22T07:37:39;21.34;74.02
69359;HTU21D;56520;49.066;8.660;2022-07-22T07:40:07;21.48;73.66
69359;HTU21D;56520;49.066;8.660;2022-07-22T07:42:32;21.58;73.51
69359;HTU21D;56520;49.066;8.660;2022-07-22T07:44:58;21.64;72.58
69359;HTU21D;56520;49.066;8.660;2022-07-22T07:47:23;21.69;72.83
69359;HTU21D;56520;49.066;8.660;2022-07-22T07:49:49;21.80;72.65
69359;HTU21D;56520;49.066;8.660;2022-07-22T07:52:15;21.84;71.65
69359;HTU21D;56520;49.066;8.660;2022-07-22T07:54:41;21.90;71.17
69359;HTU21D;56520;49.066;8.660;2022-07-22T07:57:08;21.97;70.00
69359;HTU21D;56520;49.066;8.660;2022-07-22T07:59:34;22.01;69.33
69359;HTU21D;56520;49.066;8.660;2022-07-22T08:01:59;22.05;70.05
69359;HTU21D;56520;49.066;8.660;2022-07-22T08:04:25;22.14;70.58
69359;HTU21D;56520;49.066;8.660;2022-07-22T08:06:50;22.26;69.55
69359;HTU21D;56520;49.066;8.660;2022-07-22T08:09:16;22.38;69.34
69359;HTU21D;56520;49.066;8.660;2022-07-22T08:11:41;22.48;68.91
69359;HTU21D;56520;49.066;8.660;2022-07-22T08:14:07;22.52;68.71
69359;HTU21D;56520;49.066;8.660;2022-07-22T08:16:32;22.67;69.27
69359;HTU21D;56520;49.066;8.660;2022-07-22T08:18:58;22.79;67.78
69359;HTU21D;56520;49.066;8.660;2022-07-22T08:21:23;22.84;68.06
69359;HTU21D;56520;49.066;8.660;2022-07-22T08:23:50;22.99;67.68
69359;HTU21D;56520;49.066;8.660;2022-07-22T08:26:16;23.09;66.81
69359;HTU21D;56520;49.066;8.660;2022-07-22T08:28:41;23.08;67.43
69359;HTU21D;56520;49.066;8.660;2022-07-22T08:31:06;23.14;67.71
69359;HTU21D;56520;49.066;8.660;2022-07-22T08:33:32;23.28;67.72
69359;HTU21D;56520;49.066;8.660;2022-07-22T08:35:57;23.43;66.40
69359;HTU21D;56520;49.066;8.660;2022-07-22T08:38:23;23.62;66.40
69359;HTU21D;56520;49.066;8.660;2022-07-22T08:40:48;23.72;65.78
69359;HTU21D;56520;49.066;8.660;2022-07-22T08:43:14;23.82;65.21
69359;HTU21D;56520;49.066;8.660;2022-07-22T08:45:40;23.84;64.45
69359;HTU21D;56520;49.066;8.660;2022-07-22T08:48:06;23.77;64.99
69359;HTU21D;56520;49.066;8.660;2022-07-22T08:50:31;23.88;65.24
69359;HTU21D;56520;49.066;8.660;2022-07-22T08:52:57;24.06;63.95
69359;HTU21D;56520;49.066;8.660;2022-07-22T08:55:23;24.14;63.86
69359;HTU21D;56520;49.066;8.660;2022-07-22T08:57:49;24.17;64.17
69359;HTU21D;56520;49.066;8.660;2022-07-22T09:00:18;24.27;63.35
69359;HTU21D;56520;49.066;8.660;2022-07-22T09:02:45;24.43;63.51
69359;HTU21D;56520;49.066;8.660;2022-07-22T09:05:13;24.54;62.72
69359;HTU21D;56520;49.066;8.660;2022-07-22T09:07:44;24.68;62.91
69359;HTU21D;56520;49.066;8.660;2022-07-22T09:10:14;24.82;60.83
69359;HTU21D;56520;49.066;8.660;2022-07-22T09:12:52;24.87;61.36
69359;HTU21D;56520;49.066;8.660;2022-07-22T09:15:28;24.94;61.40
69359;HTU21D;56520;49.066;8.660;2022-07-22T09:17:54;25.10;61.18
69359;HTU21D;56520;49.066;8.660;2022-07-22T09:20:20;25.28;60.86
69359;HTU21D;56520;49.066;8.660;2022-07-22T09:22:47;25.46;59.83
69359;HTU21D;56520;49.066;8.660;2022-07-22T09:25:33;25.65;59.62
69359;HTU21D;56520;49.066;8.660;2022-07-22T09:30:31;25.97;57.55
69359;HTU21D;56520;49.066;8.660;2022-07-22T09:32:57;26.03;57.42
69359;HTU21D;56520;49.066;8.660;2022-07-22T09:35:23;25.94;57.36
69359;HTU21D;56520;49.066;8.660;2022-07-22T09:37:53;26.06;58.14
69359;HTU21D;56520;49.066;8.660;2022-07-22T09:40:24;26.36;57.00
69359;HTU21D;56520;49.066;8.660;2022-07-22T09:42:51;26.46;55.97
69359;HTU21D;56520;49.066;8.660;2022-07-22T09:45:18;26.46;56.16
69359;HTU21D;56520;49.066;8.660;2022-07-22T09:47:44;26.63;56.97
69359;HTU21D;56520;49.066;8.660;2022-07-22T09:52:44;26.86;55.08
69359;HTU21D;56520;49.066;8.660;2022-07-22T09:55:10;27.12;55.25
69359;HTU21D;56520;49.066;8.660;2022-07-22T09:57:35;27.39;54.99
69359;HTU21D;56520;49.066;8.660;2022-07-22T10:00:02;27.59;53.75
69359;HTU21D;56520;49.066;8.660;2022-07-22T10:02:29;27.80;53.54
69359;HTU21D;56520;49.066;8.660;2022-07-22T10:04:55;27.95;53.14
69359;HTU21D;56520;49.066;8.660;2022-07-22T10:07:24;28.13;52.80
69359;HTU21D;56520;49.066;8.660;2022-07-22T10:09:52;28.14;51.19
69359;HTU21D;56520;49.066;8.660;2022-07-22T10:12:18;28.11;52.43
69359;HTU21D;56520;49.066;8.660;2022-07-22T10:14:45;28.18;50.64
69359;HTU21D;56520;49.066;8.660;2022-07-22T10:17:14;28.15;51.63
69359;HTU21D;56520;49.066;8.660;2022-07-22T10:19:40;28.08;51.15
69359;HTU21D;56520;49.066;8.660;2022-07-22T10:25:05;28.24;50.06
69359;HTU21D;56520;49.066;8.660;2022-07-22T10:30:09;28.53;51.03
69359;HTU21D;56520;49.066;8.660;2022-07-22T10:32:35;28.88;50.42
69359;HTU21D;56520;49.066;8.660;2022-07-22T10:40:16;29.42;49.50
69359;HTU21D;56520;49.066;8.660;2022-07-22T10:45:35;30.11;47.45
69359;HTU21D;56520;49.066;8.660;2022-07-22T10:48:03;30.20;46.50
69359;HTU21D;56520;49.066;8.660;2022-07-22T10:56:29;30.59;45.35
69359;HTU21D;56520;49.066;8.660;2022-07-22T10:59:09;30.49;44.26
69359;HTU21D;56520;49.066;8.660;2022-07-22T11:01:40;30.45;45.16
69359;HTU21D;56520;49.066;8.660;2022-07-22T11:04:21;30.32;44.46
69359;HTU21D;56520;49.066;8.660;2022-07-22T11:06:54;30.23;45.44
69359;HTU21D;56520;49.066;8.660;2022-07-22T11:09:22;30.27;44.89
69359;HTU21D;56520;49.066;8.660;2022-07-22T11:11:53;30.23;44.02
69359;HTU21D;56520;49.066;8.660;2022-07-22T11:14:20;30.31;45.09
69359;HTU21D;56520;49.066;8.660;2022-07-22T11:16:48;30.55;44.28
69359;HTU21D;56520;49.066;8.660;2022-07-22T11:19:15;30.51;44.58
69359;HTU21D;56520;49.066;8.660;2022-07-22T11:21:58;30.60;44.51
69359;HTU21D;56520;49.066;8.660;2022-07-22T11:24:25;30.77;44.24
69359;HTU21D;56520;49.066;8.660;2022-07-22T11:26:53;30.97;42.07
69359;HTU21D;56520;49.066;8.660;2022-07-22T11:32:00;31.09;42.87
69359;HTU21D;56520;49.066;8.660;2022-07-22T11:34:26;31.07;43.19
69359;HTU21D;56520;49.066;8.660;2022-07-22T11:36:53;31.25;42.98
69359;HTU21D;56520;49.066;8.660;2022-07-22T11:39:23;31.26;42.60
69359;HTU21D;56520;49.066;8.660;2022-07-22T11:41:51;31.27;43.07
69359;HTU21D;56520;49.066;8.660;2022-07-22T11:44:22;31.39;42.28
69359;HTU21D;56520;49.066;8.660;2022-07-22T11:46:47;31.42;42.09
69359;HTU21D;56520;49.066;8.660;2022-07-22T11:49:15;31.25;42.03
69359;HTU21D;56520;49.066;8.660;2022-07-22T11:51:41;31.41;42.22
69359;HTU21D;56520;49.066;8.660;2022-07-22T11:54:07;31.51;41.44
69359;HTU21D;56520;49.066;8.660;2022-07-22T11:56:33;31.60;41.71
69359;HTU21D;56520;49.066;8.660;2022-07-22T11:58:59;31.55;40.73
69359;HTU21D;56520;49.066;8.660;2022-07-22T12:01:29;31.44;41.54
69359;HTU21D;56520;49.066;8.660;2022-07-22T12:04:01;31.60;41.74
69359;HTU21D;56520;49.066;8.660;2022-07-22T12:06:27;31.93;41.49
69359;HTU21D;56520;49.066;8.660;2022-07-22T12:08:56;32.13;39.75
69359;HTU21D;56520;49.066;8.660;2022-07-22T12:11:23;31.99;39.04
69359;HTU21D;56520;49.066;8.660;2022-07-22T12:13:51;31.99;40.55
69359;HTU21D;56520;49.066;8.660;2022-07-22T12:18:43;31.98;39.82
69359;HTU21D;56520;49.066;8.660;2022-07-22T12:21:08;31.92;39.41
69359;HTU21D;56520;49.066;8.660;2022-07-22T12:23:34;31.92;39.91
69359;HTU21D;56520;49.066;8.660;2022-07-22T12:26:01;32.02;40.89
69359;HTU21D;56520;49.066;8.660;2022-07-22T12:28:27;32.39;39.02
69359;HTU21D;56520;49.066;8.660;2022-07-22T12:30:54;32.58;39.75
69359;HTU21D;56520;49.066;8.660;2022-07-22T12:33:21;32.81;38.57
69359;HTU21D;56520;49.066;8.660;2022-07-22T12:38:27;32.89;37.62
69359;HTU21D;56520;49.066;8.660;2022-07-22T12:40:53;32.60;37.29
69359;HTU21D;56520;49.066;8.660;2022-07-22T12:43:24;32.39;38.47
69359;HTU21D;56520;49.066;8.660;2022-07-22T12:45:49;32.27;37.53
69359;HTU21D;56520;49.066;8.660;2022-07-22T12:48:15;32.17;38.89
69359;HTU21D;56520;49.066;8.660;2022-07-22T12:50:42;32.27;39.06
69359;HTU21D;56520;49.066;8.660;2022-07-22T12:53:14;32.56;39.04
69359;HTU21D;56520;49.066;8.660;2022-07-22T12:55:57;32.87;37.71
69359;HTU21D;56520;49.066;8.660;2022-07-22T12:58:30;32.92;37.65
69359;HTU21D;56520;49.066;8.660;2022-07-22T13:00:58;32.94;37.99
69359;HTU21D;56520;49.066;8.660;2022-07-22T13:03:24;33.05;36.37
69359;HTU21D;56520;49.066;8.660;2022-07-22T13:05:58;32.96;36.92
69359;HTU21D;56520;49.066;8.660;2022-07-22T13:08:24;32.84;36.88
69359;HTU21D;56520;49.066;8.660;2022-07-22T13:10:50;32.81;36.84
69359;HTU21D;56520;49.066;8.660;2022-07-22T13:13:17;32.74;36.23
69359;HTU21D;56520;49.066;8.660;2022-07-22T13:15:42;32.64;36.47
69359;HTU21D;56520;49.066;8.660;2022-07-22T13:18:08;32.70;37.42
69359;HTU21D;56520;49.066;8.660;2022-07-22T13:20:33;32.96;37.24
69359;HTU21D;56520;49.066;8.660;2022-07-22T13:22:58;33.07;36.96
69359;HTU21D;56520;49.066;8.660;2022-07-22T13:25:24;33.11;35.80
69359;HTU21D;56520;49.066;8.660;2022-07-22T13:27:54;33.03;35.73
69359;HTU21D;56520;49.066;8.660;2022-07-22T13:30:20;32.94;36.72
69359;HTU21D;56520;49.066;8.660;2022-07-22T13:32:46;32.89;36.42
69359;HTU21D;56520;49.066;8.660;2022-07-22T13:35:11;32.82;35.97
69359;HTU21D;56520;49.066;8.660;2022-07-22T13:37:37;32.82;36.49
69359;HTU21D;56520;49.066;8.660;2022-07-22T13:40:03;32.82;35.89
69359;HTU21D;56520;49.066;8.660;2022-07-22T13:42:29;32.72;36.50
69359;HTU21D;56520;49.066;8.660;2022-07-22T13:44:54;32.74;36.43
69359;HTU21D;56520;49.066;8.660;2022-07-22T13:47:20;32.74;36.60
69359;HTU21D;56520;49.066;8.660;2022-07-22T13:49:46;32.96;36.32
69359;HTU21D;56520;49.066;8.660;2022-07-22T13:52:13;33.09;36.51
69359;HTU21D;56520;49.066;8.660;2022-07-22T13:54:39;33.25;35.85
69359;HTU21D;56520;49.066;8.660;2022-07-22T13:57:05;33.35;35.30
69359;HTU21D;56520;49.066;8.660;2022-07-22T13:59:31;33.46;35.54
69359;HTU21D;56520;49.066;8.660;2022-07-22T14:01:57;33.41;35.02
69359;HTU21D;56520;49.066;8.660;2022-07-22T14:04:23;33.36;34.60
69359;HTU21D;56520;49.066;8.660;2022-07-22T14:06:49;33.34;35.20
69359;HTU21D;56520;49.066;8.660;2022-07-22T14:09:14;33.33;34.42
69359;HTU21D;56520;49.066;8.660;2022-07-22T14:11:40;33.12;34.65
69359;HTU21D;56520;49.066;8.660;2022-07-22T14:14:05;33.03;34.94
69359;HTU21D;56520;49.066;8.660;2022-07-22T14:16:32;33.01;34.92
69359;HTU21D;56520;49.066;8.660;2022-07-22T14:19:08;33.08;35.66
69359;HTU21D;56520;49.066;8.660;2022-07-22T14:21:35;33.23;35.44
69359;HTU21D;56520;49.066;8.660;2022-07-22T14:24:02;33.30;35.12
69359;HTU21D;56520;49.066;8.660;2022-07-22T14:26:29;33.22;34.75
69359;HTU21D;56520;49.066;8.660;2022-07-22T14:28:54;33.30;34.95
69359;HTU21D;56520;49.066;8.660;2022-07-22T14:31:20;33.29;34.73
69359;HTU21D;56520;49.066;8.660;2022-07-22T14:33:46;33.47;34.40
69359;HTU21D;56520;49.066;8.660;2022-07-22T14:36:12;33.44;33.85
69359;HTU21D;56520;49.066;8.660;2022-07-22T14:38:38;33.55;34.31
69359;HTU21D;56520;49.066;8.660;2022-07-22T14:41:03;33.70;34.02
69359;HTU21D;56520;49.066;8.660;2022-07-22T14:43:29;33.64;34.11
69359;HTU21D;56520;49.066;8.660;2022-07-22T14:45:55;33.59;33.87
69359;HTU21D;56520;49.066;8.660;2022-07-22T14:48:20;33.48;34.47
69359;HTU21D;56520;49.066;8.660;2022-07-22T14:50:45;33.43;33.57
69359;HTU21D;56520;49.066;8.660;2022-07-22T14:53:12;33.30;34.16
69359;HTU21D;56520;49.066;8.660;2022-07-22T14:55:37;33.34;34.61
69359;HTU21D;56520;49.066;8.660;2022-07-22T14:58:03;33.49;34.84
69359;HTU21D;56520;49.066;8.660;2022-07-22T15:00:28;33.61;34.53
69359;HTU21D;56520;49.066;8.660;2022-07-22T15:02:54;33.63;33.90
69359;HTU21D;56520;49.066;8.660;2022-07-22T15:05:19;33.65;34.15
69359;HTU21D;56520;49.066;8.660;2022-07-22T15:07:45;33.60;33.59
69359;HTU21D;56520;49.066;8.660;2022-07-22T15:10:10;33.55;34.28
69359;HTU21D;56520;49.066;8.660;2022-07-22T15:12:36;33.49;33.89
69359;HTU21D;56520;49.066;8.660;2022-07-22T15:15:02;33.33;33.38
69359;HTU21D;56520;49.066;8.660;2022-07-22T15:17:33;33.36;34.18
69359;HTU21D;56520;49.066;8.660;2022-07-22T15:19:59;33.36;34.28
69359;HTU21D;56520;49.066;8.660;2022-07-22T15:22:24;33.35;33.92
69359;HTU21D;56520;49.066;8.660;2022-07-22T15:24:50;33.23;33.84
69359;HTU21D;56520;49.066;8.660;2022-07-22T15:27:15;33.17;34.19
69359;HTU21D;56520;49.066;8.660;2022-07-22T15:29:41;33.28;34.62
69359;HTU21D;56520;49.066;8.660;2022-07-22T15:32:06;33.35;33.89
69359;HTU21D;56520;49.066;8.660;2022-07-22T15:34:32;33.30;34.03
69359;HTU21D;56520;49.066;8.660;2022-07-22T15:36:58;33.20;34.50
69359;HTU21D;56520;49.066;8.660;2022-07-22T15:39:24;33.28;34.64
69359;HTU21D;56520;49.066;8.660;2022-07-22T15:41:49;33.29;34.62